ABD501 VGHS-VCBI
Flight info
| Callsign | ABD501 |
|---|---|
| Flight time | 3h 5m |
| Altitude | 34000 |
| Route | IKOGU1D IKOGU A462 CEA Q11 KASRO/N0510F320 Q11 GURAS A465 SAGOR SAGOR1A |
| Aircraft | B744/H-SDE3FGHIM1M2RWXY/LB1 |
Departure
| Time | 2026-04-23 03:35 |
|---|---|
| Airport | Hazrat Shahjalal International Airport (VGHS) |
Arrival
| Time | 2026-04-23 06:40 |
|---|---|
| Airport | Bandaranaike International Colombo Airport (VCBI) |
| Time | Latitude | Longitude | Altitude | Speed | Heading |
|---|---|---|---|---|---|
| 2026-04-23 03:32 | 23.85464 | 90.38881 | 40 ft | 0 kts | 144° |
| 2026-04-23 03:34 | 23.85459 | 90.38886 | 40 ft | 6 kts | 143° |
| 2026-04-23 03:34 | 23.85323 | 90.39001 | 40 ft | 60 kts | 143° |
| 2026-04-23 03:34 | 23.84728 | 90.39477 | 41 ft | 151 kts | 144° |
| 2026-04-23 03:35 | 23.83671 | 90.40303 | 217 ft | 209 kts | 144° |
| 2026-04-23 03:35 | 23.82472 | 90.41231 | 1237 ft | 208 kts | 145° |
| 2026-04-23 03:35 | 23.81297 | 90.42101 | 2539 ft | 203 kts | 147° |
| 2026-04-23 03:35 | 23.80093 | 90.42921 | 3631 ft | 203 kts | 148° |
| 2026-04-23 03:36 | 23.78917 | 90.43834 | 4224 ft | 212 kts | 143° |
| 2026-04-23 03:36 | 23.77750 | 90.44905 | 4462 ft | 232 kts | 141° |
| 2026-04-23 03:36 | 23.76472 | 90.46041 | 4909 ft | 239 kts | 144° |
| 2026-04-23 03:36 | 23.75099 | 90.47149 | 5310 ft | 252 kts | 146° |
| 2026-04-23 03:37 | 23.73648 | 90.48277 | 5865 ft | 259 kts | 146° |
| 2026-04-23 03:37 | 23.72144 | 90.49454 | 6381 ft | 272 kts | 146° |
| 2026-04-23 03:37 | 23.70552 | 90.50599 | 7007 ft | 278 kts | 157° |
| 2026-04-23 03:37 | 23.68669 | 90.51040 | 7694 ft | 280 kts | 182° |
| 2026-04-23 03:38 | 23.66801 | 90.50541 | 8378 ft | 283 kts | 207° |
| 2026-04-23 03:38 | 23.65279 | 90.49171 | 9152 ft | 283 kts | 232° |
| 2026-04-23 03:38 | 23.64240 | 90.47341 | 9666 ft | 287 kts | 240° |
| 2026-04-23 03:38 | 23.63204 | 90.45477 | 9935 ft | 295 kts | 237° |
| 2026-04-23 03:39 | 23.61984 | 90.43614 | 10007 ft | 308 kts | 234° |
| 2026-04-23 03:39 | 23.60551 | 90.41740 | 10013 ft | 344 kts | 230° |
| 2026-04-23 03:39 | 23.58958 | 90.39634 | 10109 ft | 374 kts | 233° |
| 2026-04-23 03:39 | 23.57328 | 90.37359 | 10806 ft | 385 kts | 234° |
| 2026-04-23 03:40 | 23.55673 | 90.35070 | 11922 ft | 386 kts | 234° |
| 2026-04-23 03:40 | 23.53997 | 90.32737 | 12792 ft | 393 kts | 236° |
| 2026-04-23 03:40 | 23.52433 | 90.30261 | 13649 ft | 399 kts | 240° |
| 2026-04-23 03:40 | 23.50944 | 90.27667 | 14446 ft | 406 kts | 241° |
| 2026-04-23 03:41 | 23.49470 | 90.25004 | 15269 ft | 414 kts | 241° |
| 2026-04-23 03:41 | 23.47965 | 90.22307 | 16069 ft | 421 kts | 241° |
| 2026-04-23 03:41 | 23.46425 | 90.19556 | 16851 ft | 428 kts | 241° |
| 2026-04-23 03:41 | 23.44857 | 90.16775 | 17598 ft | 436 kts | 240° |
| 2026-04-23 03:42 | 23.43246 | 90.13941 | 18354 ft | 442 kts | 240° |
| 2026-04-23 03:42 | 23.41615 | 90.11086 | 19233 ft | 444 kts | 240° |
| 2026-04-23 03:42 | 23.39997 | 90.08259 | 20079 ft | 447 kts | 240° |
| 2026-04-23 03:42 | 23.38339 | 90.05366 | 20846 ft | 451 kts | 240° |
| 2026-04-23 03:43 | 23.36669 | 90.02454 | 21631 ft | 454 kts | 240° |
| 2026-04-23 03:43 | 23.34990 | 89.99528 | 22367 ft | 457 kts | 240° |
| 2026-04-23 03:43 | 23.33292 | 89.96552 | 23028 ft | 461 kts | 242° |
| 2026-04-23 03:43 | 23.32085 | 89.93341 | 23718 ft | 458 kts | 258° |
| 2026-04-23 03:44 | 23.31763 | 89.89956 | 24381 ft | 455 kts | 273° |
| 2026-04-23 03:44 | 23.31981 | 89.86518 | 25059 ft | 457 kts | 278° |
| 2026-04-23 03:44 | 23.32536 | 89.83120 | 25746 ft | 457 kts | 283° |
| 2026-04-23 03:44 | 23.33381 | 89.79766 | 26391 ft | 459 kts | 287° |
| 2026-04-23 03:45 | 23.34383 | 89.76453 | 26960 ft | 461 kts | 288° |
| 2026-04-23 03:45 | 23.35373 | 89.73127 | 27487 ft | 464 kts | 287° |
| 2026-04-23 03:45 | 23.36255 | 89.69723 | 27870 ft | 468 kts | 279° |
| 2026-04-23 03:45 | 23.36323 | 89.66216 | 28588 ft | 464 kts | 264° |
| 2026-04-23 03:46 | 23.35510 | 89.62835 | 29281 ft | 464 kts | 251° |
| 2026-04-23 03:46 | 23.34274 | 89.59647 | 29974 ft | 461 kts | 247° |
| 2026-04-23 03:46 | 23.32794 | 89.56516 | 30670 ft | 458 kts | 243° |
| 2026-04-23 03:46 | 23.31195 | 89.53602 | 31456 ft | 451 kts | 241° |
| 2026-04-23 03:47 | 23.29494 | 89.50756 | 32106 ft | 447 kts | 240° |
| 2026-04-23 03:47 | 23.27774 | 89.47961 | 32670 ft | 443 kts | 240° |
| 2026-04-23 03:47 | 23.26080 | 89.45188 | 33365 ft | 434 kts | 241° |
| 2026-04-23 03:47 | 23.24413 | 89.42452 | 33748 ft | 431 kts | 241° |
| 2026-04-23 03:48 | 23.21148 | 89.37036 | 33818 ft | 428 kts | 241° |
| 2026-04-23 03:48 | 23.17892 | 89.31614 | 33815 ft | 429 kts | 241° |
| 2026-04-23 03:49 | 23.14634 | 89.26163 | 33812 ft | 430 kts | 241° |
| 2026-04-23 03:49 | 23.11366 | 89.20727 | 33811 ft | 429 kts | 241° |
| 2026-04-23 03:50 | 23.08114 | 89.15296 | 33808 ft | 428 kts | 241° |
| 2026-04-23 03:50 | 23.04868 | 89.09910 | 33807 ft | 428 kts | 241° |
| 2026-04-23 03:51 | 23.01592 | 89.04491 | 33802 ft | 429 kts | 240° |
| 2026-04-23 03:51 | 22.98305 | 88.99062 | 33802 ft | 429 kts | 240° |
| 2026-04-23 03:52 | 22.95027 | 88.93651 | 33800 ft | 429 kts | 240° |
| 2026-04-23 03:52 | 22.91777 | 88.88240 | 33797 ft | 428 kts | 242° |
| 2026-04-23 03:53 | 22.88729 | 88.82719 | 33795 ft | 428 kts | 243° |
| 2026-04-23 03:53 | 22.85677 | 88.77183 | 33793 ft | 428 kts | 242° |
| 2026-04-23 03:54 | 22.82620 | 88.71635 | 33791 ft | 428 kts | 242° |
| 2026-04-23 03:54 | 22.79548 | 88.66095 | 33788 ft | 428 kts | 242° |
| 2026-04-23 03:55 | 22.76465 | 88.60565 | 33788 ft | 429 kts | 242° |
| 2026-04-23 03:55 | 22.73394 | 88.55067 | 33788 ft | 429 kts | 242° |
| 2026-04-23 03:56 | 22.70301 | 88.49534 | 33788 ft | 429 kts | 242° |
| 2026-04-23 03:56 | 22.66802 | 88.44293 | 33792 ft | 434 kts | 230° |
| 2026-04-23 03:57 | 22.62364 | 88.39852 | 33789 ft | 438 kts | 225° |
| 2026-04-23 03:57 | 22.57642 | 88.35637 | 33788 ft | 441 kts | 225° |
| 2026-04-23 03:58 | 22.52914 | 88.31415 | 33787 ft | 440 kts | 225° |
| 2026-04-23 03:58 | 22.48203 | 88.27181 | 33787 ft | 440 kts | 225° |
| 2026-04-23 03:59 | 22.43486 | 88.22932 | 33788 ft | 440 kts | 225° |
| 2026-04-23 03:59 | 22.38787 | 88.18680 | 33788 ft | 440 kts | 225° |
| 2026-04-23 04:00 | 22.34114 | 88.14448 | 33789 ft | 440 kts | 225° |
| 2026-04-23 04:00 | 22.29385 | 88.10176 | 33789 ft | 440 kts | 224° |
| 2026-04-23 04:01 | 22.24680 | 88.05934 | 33789 ft | 440 kts | 224° |
| 2026-04-23 04:01 | 22.19978 | 88.01699 | 33790 ft | 441 kts | 224° |
| 2026-04-23 04:02 | 22.15292 | 87.97483 | 33790 ft | 441 kts | 224° |
| 2026-04-23 04:02 | 22.10576 | 87.93244 | 33791 ft | 441 kts | 224° |
| 2026-04-23 04:03 | 22.05865 | 87.89014 | 33791 ft | 441 kts | 224° |
| 2026-04-23 04:03 | 22.01147 | 87.84781 | 33792 ft | 441 kts | 224° |
| 2026-04-23 04:04 | 21.96427 | 87.80551 | 33793 ft | 441 kts | 224° |
| 2026-04-23 04:04 | 21.91738 | 87.76352 | 33793 ft | 441 kts | 224° |
| 2026-04-23 04:05 | 21.87023 | 87.72132 | 33794 ft | 441 kts | 224° |
| 2026-04-23 04:05 | 21.82296 | 87.67907 | 33795 ft | 441 kts | 224° |
| 2026-04-23 04:06 | 21.77604 | 87.63716 | 33795 ft | 440 kts | 224° |
| 2026-04-23 04:06 | 21.72888 | 87.59507 | 33796 ft | 441 kts | 224° |
| 2026-04-23 04:07 | 21.68157 | 87.55289 | 33796 ft | 441 kts | 224° |
| 2026-04-23 04:07 | 21.63433 | 87.51081 | 33797 ft | 441 kts | 224° |
| 2026-04-23 04:08 | 21.59500 | 87.47580 | 33796 ft | 441 kts | 224° |
| 2026-04-23 04:08 | 21.54779 | 87.43381 | 33796 ft | 440 kts | 224° |
| 2026-04-23 04:09 | 21.50076 | 87.39202 | 33797 ft | 441 kts | 224° |
| 2026-04-23 04:09 | 21.45334 | 87.34991 | 33797 ft | 441 kts | 224° |
| 2026-04-23 04:10 | 21.40603 | 87.30794 | 33797 ft | 441 kts | 224° |
| 2026-04-23 04:10 | 21.35872 | 87.26601 | 33797 ft | 440 kts | 224° |
| 2026-04-23 04:11 | 21.31146 | 87.22416 | 33797 ft | 441 kts | 224° |
| 2026-04-23 04:11 | 21.26402 | 87.18219 | 33797 ft | 442 kts | 224° |
| 2026-04-23 04:12 | 21.21688 | 87.14051 | 33796 ft | 441 kts | 223° |
| 2026-04-23 04:12 | 21.16948 | 87.09864 | 33796 ft | 441 kts | 223° |
| 2026-04-23 04:13 | 21.12208 | 87.05681 | 33796 ft | 441 kts | 223° |
| 2026-04-23 04:13 | 21.07473 | 87.01505 | 33796 ft | 442 kts | 223° |
| 2026-04-23 04:14 | 21.02725 | 86.97306 | 33795 ft | 442 kts | 223° |
| 2026-04-23 04:14 | 20.98002 | 86.93150 | 33795 ft | 442 kts | 223° |
| 2026-04-23 04:15 | 20.93245 | 86.88971 | 33795 ft | 442 kts | 223° |
| 2026-04-23 04:16 | 20.86108 | 86.82706 | 33794 ft | 442 kts | 223° |
| 2026-04-23 04:16 | 20.81355 | 86.78532 | 33792 ft | 442 kts | 223° |
| 2026-04-23 04:17 | 20.76635 | 86.74368 | 33793 ft | 442 kts | 223° |
| 2026-04-23 04:17 | 20.71883 | 86.70176 | 33792 ft | 443 kts | 223° |
| 2026-04-23 04:18 | 20.67131 | 86.65966 | 33792 ft | 443 kts | 223° |
| 2026-04-23 04:18 | 20.62405 | 86.61802 | 33791 ft | 443 kts | 223° |
| 2026-04-23 04:19 | 20.57635 | 86.57606 | 33790 ft | 443 kts | 223° |
| 2026-04-23 04:19 | 20.52876 | 86.53423 | 33790 ft | 443 kts | 223° |
| 2026-04-23 04:20 | 20.48107 | 86.49235 | 33790 ft | 444 kts | 223° |
| 2026-04-23 04:20 | 20.43335 | 86.45049 | 33791 ft | 444 kts | 223° |
| 2026-04-23 04:21 | 20.38554 | 86.40864 | 33791 ft | 444 kts | 223° |
| 2026-04-23 04:21 | 20.33811 | 86.36697 | 33790 ft | 445 kts | 223° |
| 2026-04-23 04:22 | 20.29024 | 86.32502 | 33790 ft | 445 kts | 223° |
| 2026-04-23 04:22 | 20.24237 | 86.28320 | 33789 ft | 444 kts | 223° |
| 2026-04-23 04:23 | 20.19460 | 86.24150 | 33788 ft | 444 kts | 223° |
| 2026-04-23 04:23 | 20.14665 | 86.19968 | 33788 ft | 445 kts | 223° |
| 2026-04-23 04:24 | 20.09876 | 86.15786 | 33788 ft | 445 kts | 223° |
| 2026-04-23 04:24 | 20.05102 | 86.11616 | 33788 ft | 445 kts | 223° |
| 2026-04-23 04:25 | 20.00310 | 86.07437 | 33788 ft | 445 kts | 223° |
| 2026-04-23 04:25 | 19.95522 | 86.03255 | 33788 ft | 445 kts | 223° |
| 2026-04-23 04:26 | 19.90723 | 85.99068 | 33789 ft | 445 kts | 223° |
| 2026-04-23 04:26 | 19.85962 | 85.94917 | 33789 ft | 445 kts | 223° |
| 2026-04-23 04:27 | 19.81163 | 85.90737 | 33789 ft | 445 kts | 223° |
| 2026-04-23 04:27 | 19.76373 | 85.86566 | 33789 ft | 445 kts | 223° |
| 2026-04-23 04:28 | 19.69213 | 85.80317 | 33791 ft | 446 kts | 223° |
| 2026-04-23 04:28 | 19.64424 | 85.76144 | 33792 ft | 446 kts | 222° |
| 2026-04-23 04:29 | 19.59616 | 85.71962 | 33793 ft | 445 kts | 222° |
| 2026-04-23 04:29 | 19.54828 | 85.67801 | 33794 ft | 446 kts | 222° |
| 2026-04-23 04:30 | 19.50026 | 85.63621 | 33795 ft | 446 kts | 222° |
| 2026-04-23 04:30 | 19.45250 | 85.59476 | 33796 ft | 446 kts | 222° |
| 2026-04-23 04:31 | 19.40449 | 85.55319 | 33797 ft | 446 kts | 222° |
| 2026-04-23 04:31 | 19.35632 | 85.51152 | 33798 ft | 446 kts | 222° |
| 2026-04-23 04:32 | 19.30846 | 85.47014 | 33799 ft | 446 kts | 221° |
| 2026-04-23 04:32 | 19.26039 | 85.42860 | 33801 ft | 446 kts | 221° |
| 2026-04-23 04:33 | 19.21225 | 85.38715 | 33801 ft | 446 kts | 221° |
| 2026-04-23 04:33 | 19.16396 | 85.34558 | 33803 ft | 446 kts | 221° |
| 2026-04-23 04:34 | 19.11577 | 85.30412 | 33805 ft | 446 kts | 221° |
| 2026-04-23 04:34 | 19.06787 | 85.26293 | 33806 ft | 446 kts | 221° |
| 2026-04-23 04:35 | 19.01972 | 85.22155 | 33808 ft | 447 kts | 221° |
| 2026-04-23 04:35 | 18.97152 | 85.17989 | 33810 ft | 447 kts | 221° |
| 2026-04-23 04:36 | 18.92330 | 85.13838 | 33811 ft | 446 kts | 221° |
| 2026-04-23 04:36 | 18.87499 | 85.09695 | 33813 ft | 446 kts | 221° |
| 2026-04-23 04:37 | 18.82679 | 85.05565 | 33814 ft | 446 kts | 221° |
| 2026-04-23 04:37 | 18.77884 | 85.01460 | 33816 ft | 446 kts | 221° |
| 2026-04-23 04:38 | 18.73058 | 84.97326 | 33817 ft | 446 kts | 221° |
| 2026-04-23 04:38 | 18.68243 | 84.93177 | 33820 ft | 446 kts | 221° |
| 2026-04-23 04:39 | 18.63433 | 84.89036 | 33821 ft | 446 kts | 221° |
| 2026-04-23 04:39 | 18.58656 | 84.84925 | 33822 ft | 446 kts | 221° |
| 2026-04-23 04:40 | 18.53848 | 84.80792 | 33824 ft | 446 kts | 221° |
| 2026-04-23 04:40 | 18.49042 | 84.76663 | 33826 ft | 445 kts | 221° |
| 2026-04-23 04:41 | 18.44243 | 84.72527 | 33827 ft | 445 kts | 221° |
| 2026-04-23 04:41 | 18.39437 | 84.68387 | 33829 ft | 445 kts | 221° |
| 2026-04-23 04:42 | 18.34650 | 84.64274 | 33830 ft | 445 kts | 221° |
| 2026-04-23 04:42 | 18.29842 | 84.60148 | 33831 ft | 444 kts | 221° |
| 2026-04-23 04:43 | 18.25081 | 84.56066 | 33832 ft | 444 kts | 221° |
| 2026-04-23 04:43 | 18.20251 | 84.51927 | 33834 ft | 444 kts | 221° |
| 2026-04-23 04:44 | 18.15487 | 84.47850 | 33835 ft | 444 kts | 221° |
| 2026-04-23 04:44 | 18.10696 | 84.43752 | 33836 ft | 444 kts | 221° |
| 2026-04-23 04:45 | 18.05904 | 84.39656 | 33837 ft | 444 kts | 221° |
| 2026-04-23 04:45 | 18.01115 | 84.35565 | 33825 ft | 443 kts | 221° |
| 2026-04-23 04:46 | 17.96328 | 84.31478 | 33816 ft | 444 kts | 220° |
| 2026-04-23 04:46 | 17.91522 | 84.27380 | 33815 ft | 445 kts | 220° |
| 2026-04-23 04:47 | 17.86722 | 84.23288 | 33816 ft | 445 kts | 220° |
| 2026-04-23 04:47 | 17.81944 | 84.19218 | 33816 ft | 444 kts | 220° |
| 2026-04-23 04:48 | 17.77139 | 84.15128 | 33816 ft | 444 kts | 220° |
| 2026-04-23 04:48 | 17.72335 | 84.11032 | 33816 ft | 444 kts | 220° |
| 2026-04-23 04:49 | 17.67525 | 84.06942 | 33819 ft | 444 kts | 220° |
| 2026-04-23 04:49 | 17.62719 | 84.02863 | 33818 ft | 445 kts | 220° |
| 2026-04-23 04:50 | 17.57930 | 83.98802 | 33819 ft | 445 kts | 220° |
| 2026-04-23 04:50 | 17.53109 | 83.94716 | 33819 ft | 444 kts | 220° |
| 2026-04-23 04:51 | 17.48316 | 83.90637 | 33819 ft | 444 kts | 221° |
| 2026-04-23 04:51 | 17.43558 | 83.86516 | 33819 ft | 444 kts | 221° |
| 2026-04-23 04:52 | 17.39581 | 83.83086 | 33819 ft | 445 kts | 220° |
| 2026-04-23 04:52 | 17.34022 | 83.78300 | 33819 ft | 445 kts | 220° |
| 2026-04-23 04:53 | 17.29236 | 83.74182 | 33819 ft | 445 kts | 220° |
| 2026-04-23 04:53 | 17.25255 | 83.70760 | 33820 ft | 446 kts | 220° |
| 2026-04-23 04:54 | 17.20459 | 83.66638 | 33820 ft | 445 kts | 220° |
| 2026-04-23 04:54 | 17.15658 | 83.62525 | 33820 ft | 446 kts | 220° |
| 2026-04-23 04:55 | 17.10854 | 83.58410 | 33820 ft | 446 kts | 220° |
| 2026-04-23 04:55 | 17.06077 | 83.54322 | 33818 ft | 446 kts | 220° |
| 2026-04-23 04:56 | 17.01258 | 83.50200 | 33818 ft | 447 kts | 220° |
| 2026-04-23 04:56 | 16.96444 | 83.46084 | 33818 ft | 447 kts | 220° |
| 2026-04-23 04:57 | 16.91633 | 83.41953 | 33819 ft | 447 kts | 220° |
| 2026-04-23 04:57 | 16.86828 | 83.37838 | 33819 ft | 447 kts | 220° |
| 2026-04-23 04:58 | 16.82024 | 83.33731 | 33819 ft | 447 kts | 220° |
| 2026-04-23 04:58 | 16.77224 | 83.29631 | 33819 ft | 448 kts | 220° |
| 2026-04-23 04:59 | 16.72399 | 83.25513 | 33820 ft | 448 kts | 219° |
| 2026-04-23 04:59 | 16.67599 | 83.21421 | 33822 ft | 447 kts | 219° |
| 2026-04-23 05:00 | 16.62779 | 83.17314 | 33830 ft | 448 kts | 219° |
| 2026-04-23 05:00 | 16.57949 | 83.13200 | 33831 ft | 447 kts | 219° |
| 2026-04-23 05:01 | 16.53125 | 83.09096 | 33832 ft | 447 kts | 219° |
| 2026-04-23 05:01 | 16.48303 | 83.04995 | 33832 ft | 447 kts | 219° |
| 2026-04-23 05:02 | 16.43476 | 83.00893 | 33833 ft | 446 kts | 219° |
| 2026-04-23 05:02 | 16.38665 | 82.96807 | 33833 ft | 446 kts | 219° |
| 2026-04-23 05:03 | 16.33866 | 82.92734 | 33833 ft | 446 kts | 219° |
| 2026-04-23 05:03 | 16.29048 | 82.88648 | 33834 ft | 445 kts | 219° |
| 2026-04-23 05:04 | 16.24242 | 82.84574 | 33835 ft | 446 kts | 219° |
| 2026-04-23 05:04 | 16.19463 | 82.80525 | 33835 ft | 445 kts | 219° |
| 2026-04-23 05:05 | 16.14664 | 82.76463 | 33835 ft | 444 kts | 219° |
| 2026-04-23 05:05 | 16.09857 | 82.72396 | 33836 ft | 444 kts | 219° |
| 2026-04-23 05:06 | 16.05054 | 82.68336 | 33836 ft | 445 kts | 219° |
| 2026-04-23 05:06 | 16.00285 | 82.64306 | 33836 ft | 444 kts | 219° |
| 2026-04-23 05:07 | 15.95475 | 82.60245 | 33838 ft | 447 kts | 219° |
| 2026-04-23 05:07 | 15.90650 | 82.56166 | 33837 ft | 446 kts | 219° |
| 2026-04-23 05:08 | 15.85834 | 82.52100 | 33838 ft | 446 kts | 219° |
| 2026-04-23 05:08 | 15.81011 | 82.48038 | 33837 ft | 446 kts | 219° |
| 2026-04-23 05:09 | 15.76199 | 82.43988 | 33838 ft | 445 kts | 219° |
| 2026-04-23 05:09 | 15.71383 | 82.39937 | 33838 ft | 445 kts | 219° |
| 2026-04-23 05:10 | 15.66577 | 82.35881 | 33837 ft | 445 kts | 219° |
| 2026-04-23 05:10 | 15.61970 | 82.31647 | 33838 ft | 445 kts | 221° |
| 2026-04-23 05:11 | 15.57362 | 82.27330 | 33839 ft | 445 kts | 221° |
| 2026-04-23 05:11 | 15.52756 | 82.23049 | 33838 ft | 445 kts | 221° |
| 2026-04-23 05:12 | 15.48121 | 82.18758 | 33839 ft | 446 kts | 221° |
| 2026-04-23 05:12 | 15.43507 | 82.14495 | 33839 ft | 446 kts | 221° |
| 2026-04-23 05:13 | 15.38869 | 82.10198 | 33839 ft | 447 kts | 221° |
| 2026-04-23 05:14 | 15.31904 | 82.03755 | 33839 ft | 447 kts | 221° |
| 2026-04-23 05:14 | 15.27277 | 81.99484 | 33840 ft | 448 kts | 221° |
| 2026-04-23 05:15 | 15.22635 | 81.95203 | 33840 ft | 445 kts | 221° |
| 2026-04-23 05:15 | 15.17998 | 81.90930 | 33841 ft | 446 kts | 221° |
| 2026-04-23 05:16 | 15.13384 | 81.86680 | 33841 ft | 446 kts | 221° |
| 2026-04-23 05:16 | 15.08735 | 81.82401 | 33841 ft | 447 kts | 220° |
| 2026-04-23 05:17 | 15.04083 | 81.78123 | 33846 ft | 447 kts | 220° |
| 2026-04-23 05:17 | 14.99426 | 81.73842 | 33847 ft | 448 kts | 220° |
| 2026-04-23 05:18 | 14.94763 | 81.69558 | 33847 ft | 448 kts | 220° |
| 2026-04-23 05:18 | 14.90102 | 81.65279 | 33847 ft | 449 kts | 220° |
| 2026-04-23 05:19 | 14.85420 | 81.60983 | 33847 ft | 449 kts | 220° |
| 2026-04-23 05:19 | 14.80774 | 81.56722 | 33847 ft | 449 kts | 220° |
| 2026-04-23 05:20 | 14.76085 | 81.52425 | 33847 ft | 450 kts | 220° |
| 2026-04-23 05:20 | 14.71391 | 81.48126 | 33847 ft | 451 kts | 220° |
| 2026-04-23 05:21 | 14.66706 | 81.43838 | 33847 ft | 450 kts | 220° |
| 2026-04-23 05:21 | 14.62005 | 81.39537 | 33847 ft | 450 kts | 220° |
| 2026-04-23 05:22 | 14.57340 | 81.35272 | 33847 ft | 450 kts | 220° |
| 2026-04-23 05:22 | 14.52637 | 81.30975 | 33847 ft | 450 kts | 220° |
| 2026-04-23 05:23 | 14.47935 | 81.26681 | 33846 ft | 450 kts | 220° |
| 2026-04-23 05:23 | 14.43240 | 81.22395 | 33846 ft | 450 kts | 220° |
| 2026-04-23 05:24 | 14.38575 | 81.18140 | 33846 ft | 450 kts | 220° |
| 2026-04-23 05:24 | 14.33874 | 81.13854 | 33846 ft | 450 kts | 220° |
| 2026-04-23 05:25 | 14.29178 | 81.09576 | 33846 ft | 449 kts | 220° |
| 2026-04-23 05:25 | 14.24491 | 81.05307 | 33846 ft | 449 kts | 220° |
| 2026-04-23 05:26 | 14.19829 | 81.01054 | 33846 ft | 449 kts | 220° |
| 2026-04-23 05:26 | 14.15137 | 80.96788 | 33846 ft | 449 kts | 220° |
| 2026-04-23 05:27 | 14.10450 | 80.92531 | 33846 ft | 448 kts | 220° |
| 2026-04-23 05:27 | 14.05778 | 80.88288 | 33847 ft | 448 kts | 220° |
| 2026-04-23 05:28 | 14.01097 | 80.84052 | 33846 ft | 447 kts | 219° |
| 2026-04-23 05:28 | 13.96043 | 80.80279 | 33847 ft | 450 kts | 213° |
| 2026-04-23 05:29 | 13.90792 | 80.76833 | 33846 ft | 451 kts | 212° |
| 2026-04-23 05:29 | 13.85517 | 80.73352 | 33846 ft | 450 kts | 212° |
| 2026-04-23 05:30 | 13.80258 | 80.69851 | 33846 ft | 449 kts | 212° |
| 2026-04-23 05:30 | 13.75013 | 80.66349 | 33846 ft | 449 kts | 212° |
| 2026-04-23 05:31 | 13.69769 | 80.62841 | 33846 ft | 449 kts | 213° |
| 2026-04-23 05:31 | 13.64564 | 80.59354 | 33846 ft | 449 kts | 212° |
| 2026-04-23 05:32 | 13.59320 | 80.55847 | 33846 ft | 449 kts | 212° |
| 2026-04-23 05:32 | 13.54082 | 80.52347 | 33846 ft | 449 kts | 212° |
| 2026-04-23 05:33 | 13.48841 | 80.48848 | 33846 ft | 449 kts | 212° |
| 2026-04-23 05:33 | 13.43598 | 80.45349 | 33846 ft | 449 kts | 212° |
| 2026-04-23 05:34 | 13.38384 | 80.41872 | 33846 ft | 449 kts | 212° |
| 2026-04-23 05:34 | 13.33136 | 80.38373 | 33846 ft | 449 kts | 212° |
| 2026-04-23 05:35 | 13.27887 | 80.34876 | 33845 ft | 449 kts | 212° |
| 2026-04-23 05:35 | 13.22646 | 80.31379 | 33846 ft | 450 kts | 212° |
| 2026-04-23 05:36 | 13.17387 | 80.27879 | 33846 ft | 450 kts | 212° |
| 2026-04-23 05:36 | 13.12128 | 80.24382 | 33846 ft | 450 kts | 212° |
| 2026-04-23 05:37 | 13.06902 | 80.20910 | 33846 ft | 450 kts | 212° |
| 2026-04-23 05:37 | 13.01628 | 80.17429 | 33841 ft | 451 kts | 209° |
| 2026-04-23 05:37 | 12.98717 | 80.16253 | 33853 ft | 451 kts | 195° |
| 2026-04-23 05:38 | 12.95633 | 80.15643 | 33848 ft | 452 kts | 190° |
| 2026-04-23 05:38 | 12.89346 | 80.15067 | 33847 ft | 454 kts | 185° |
| 2026-04-23 05:39 | 12.83015 | 80.14886 | 33849 ft | 456 kts | 184° |
| 2026-04-23 05:39 | 12.77751 | 80.14734 | 33851 ft | 455 kts | 184° |
| 2026-04-23 05:40 | 12.71420 | 80.14525 | 33854 ft | 455 kts | 184° |
| 2026-04-23 05:40 | 12.65074 | 80.14306 | 33856 ft | 455 kts | 184° |
| 2026-04-23 05:41 | 12.58744 | 80.14084 | 33858 ft | 455 kts | 184° |
| 2026-04-23 05:41 | 12.52407 | 80.13860 | 33860 ft | 455 kts | 184° |
| 2026-04-23 05:42 | 12.46120 | 80.13638 | 33861 ft | 455 kts | 184° |
| 2026-04-23 05:42 | 12.39792 | 80.13415 | 33865 ft | 455 kts | 184° |
| 2026-04-23 05:43 | 12.33462 | 80.13192 | 33867 ft | 455 kts | 184° |
| 2026-04-23 05:43 | 12.27134 | 80.12969 | 33869 ft | 455 kts | 184° |
| 2026-04-23 05:44 | 12.20794 | 80.12745 | 33870 ft | 455 kts | 184° |
| 2026-04-23 05:44 | 12.14504 | 80.12523 | 33872 ft | 455 kts | 184° |
| 2026-04-23 05:45 | 12.08174 | 80.12300 | 33873 ft | 455 kts | 184° |
| 2026-04-23 05:45 | 12.01854 | 80.12078 | 33873 ft | 455 kts | 184° |
| 2026-04-23 05:46 | 11.95524 | 80.11856 | 33874 ft | 455 kts | 184° |
| 2026-04-23 05:46 | 11.89186 | 80.11633 | 33873 ft | 455 kts | 184° |
| 2026-04-23 05:47 | 11.82858 | 80.11438 | 33873 ft | 455 kts | 183° |
| 2026-04-23 05:47 | 11.76559 | 80.11329 | 33873 ft | 456 kts | 183° |
| 2026-04-23 05:48 | 11.70214 | 80.11212 | 33872 ft | 456 kts | 183° |
| 2026-04-23 05:48 | 11.63878 | 80.11091 | 33871 ft | 455 kts | 183° |
| 2026-04-23 05:49 | 11.57520 | 80.10969 | 33871 ft | 456 kts | 183° |
| 2026-04-23 05:49 | 11.51174 | 80.10847 | 33870 ft | 456 kts | 183° |
| 2026-04-23 05:50 | 11.44804 | 80.10724 | 33869 ft | 457 kts | 183° |
| 2026-04-23 05:50 | 11.38476 | 80.10601 | 33868 ft | 458 kts | 183° |
| 2026-04-23 05:51 | 11.32094 | 80.10478 | 33868 ft | 458 kts | 182° |
| 2026-04-23 05:51 | 11.25716 | 80.10355 | 33867 ft | 458 kts | 182° |
| 2026-04-23 05:52 | 11.19335 | 80.10232 | 33866 ft | 459 kts | 182° |
| 2026-04-23 05:52 | 11.12973 | 80.10109 | 33864 ft | 460 kts | 182° |
| 2026-04-23 05:53 | 11.06554 | 80.09986 | 33863 ft | 460 kts | 182° |
| 2026-04-23 05:53 | 11.00173 | 80.09863 | 33862 ft | 461 kts | 182° |
| 2026-04-23 05:54 | 10.93748 | 80.09739 | 33861 ft | 461 kts | 182° |
| 2026-04-23 05:54 | 10.87323 | 80.09615 | 33859 ft | 462 kts | 182° |
| 2026-04-23 05:55 | 10.80939 | 80.09492 | 33858 ft | 462 kts | 182° |
| 2026-04-23 05:55 | 10.74511 | 80.09369 | 33857 ft | 462 kts | 182° |
| 2026-04-23 05:56 | 10.68066 | 80.09257 | 33855 ft | 462 kts | 182° |
| 2026-04-23 05:56 | 10.61625 | 80.09155 | 33854 ft | 463 kts | 182° |
| 2026-04-23 05:57 | 10.55169 | 80.09052 | 33847 ft | 463 kts | 182° |
| 2026-04-23 05:57 | 10.48775 | 80.08950 | 33847 ft | 463 kts | 182° |
| 2026-04-23 05:58 | 10.42316 | 80.08847 | 33846 ft | 464 kts | 182° |
| 2026-04-23 05:58 | 10.35847 | 80.08743 | 33846 ft | 464 kts | 182° |
| 2026-04-23 05:59 | 10.29418 | 80.08640 | 33846 ft | 464 kts | 182° |
| 2026-04-23 05:59 | 10.22972 | 80.08537 | 33846 ft | 464 kts | 182° |
| 2026-04-23 06:00 | 10.16511 | 80.08434 | 33846 ft | 464 kts | 182° |
| 2026-04-23 06:00 | 10.10046 | 80.08330 | 33846 ft | 464 kts | 182° |
| 2026-04-23 06:01 | 10.03597 | 80.08227 | 33846 ft | 464 kts | 182° |
| 2026-04-23 06:01 | 9.97178 | 80.08118 | 33846 ft | 464 kts | 182° |
| 2026-04-23 06:02 | 9.90719 | 80.07992 | 33846 ft | 464 kts | 182° |
| 2026-04-23 06:02 | 9.84277 | 80.07867 | 33846 ft | 464 kts | 182° |
| 2026-04-23 06:03 | 9.77815 | 80.07743 | 33846 ft | 464 kts | 182° |
| 2026-04-23 06:03 | 9.71350 | 80.07618 | 33846 ft | 463 kts | 182° |
| 2026-04-23 06:04 | 9.64934 | 80.07494 | 33846 ft | 464 kts | 182° |
| 2026-04-23 06:04 | 9.58475 | 80.07370 | 33846 ft | 464 kts | 182° |
| 2026-04-23 06:05 | 9.51990 | 80.07245 | 33846 ft | 464 kts | 182° |
| 2026-04-23 06:05 | 9.45577 | 80.07122 | 33846 ft | 464 kts | 182° |
| 2026-04-23 06:06 | 9.39104 | 80.06997 | 33847 ft | 465 kts | 182° |
| 2026-04-23 06:06 | 9.32628 | 80.06873 | 33846 ft | 465 kts | 182° |
| 2026-04-23 06:07 | 9.26156 | 80.06747 | 33846 ft | 465 kts | 182° |
| 2026-04-23 06:07 | 9.19718 | 80.06622 | 33846 ft | 465 kts | 181° |
| 2026-04-23 06:08 | 9.13237 | 80.06496 | 33846 ft | 465 kts | 181° |
| 2026-04-23 06:08 | 9.10041 | 80.06434 | 33843 ft | 452 kts | 181° |
| 2026-04-23 06:08 | 9.06949 | 80.06374 | 33836 ft | 435 kts | 181° |
| 2026-04-23 06:08 | 9.03999 | 80.06317 | 33624 ft | 424 kts | 181° |
| 2026-04-23 06:09 | 9.01084 | 80.06260 | 33317 ft | 415 kts | 181° |
| 2026-04-23 06:09 | 8.98208 | 80.06204 | 32778 ft | 413 kts | 181° |
| 2026-04-23 06:09 | 8.95272 | 80.06147 | 32254 ft | 433 kts | 181° |
| 2026-04-23 06:09 | 8.92240 | 80.06088 | 31725 ft | 438 kts | 181° |
| 2026-04-23 06:10 | 8.89199 | 80.06029 | 31187 ft | 435 kts | 181° |
| 2026-04-23 06:10 | 8.86185 | 80.05970 | 30653 ft | 431 kts | 181° |
| 2026-04-23 06:10 | 8.83193 | 80.05912 | 30104 ft | 427 kts | 181° |
| 2026-04-23 06:10 | 8.80241 | 80.05855 | 29566 ft | 423 kts | 181° |
| 2026-04-23 06:11 | 8.77308 | 80.05798 | 29031 ft | 419 kts | 181° |
| 2026-04-23 06:11 | 8.74396 | 80.05741 | 28498 ft | 416 kts | 181° |
| 2026-04-23 06:11 | 8.71514 | 80.05686 | 27970 ft | 412 kts | 181° |
| 2026-04-23 06:11 | 8.68656 | 80.05630 | 27441 ft | 409 kts | 181° |
| 2026-04-23 06:12 | 8.65856 | 80.05576 | 26922 ft | 406 kts | 181° |
| 2026-04-23 06:12 | 8.63030 | 80.05521 | 26395 ft | 403 kts | 181° |
| 2026-04-23 06:12 | 8.57465 | 80.05413 | 25337 ft | 397 kts | 181° |
| 2026-04-23 06:13 | 8.54740 | 80.05360 | 24827 ft | 394 kts | 181° |
| 2026-04-23 06:13 | 8.51975 | 80.05307 | 24307 ft | 391 kts | 180° |
| 2026-04-23 06:13 | 8.49293 | 80.05255 | 23768 ft | 390 kts | 181° |
| 2026-04-23 06:13 | 8.46588 | 80.05202 | 23255 ft | 387 kts | 181° |
| 2026-04-23 06:14 | 8.43902 | 80.05150 | 22726 ft | 385 kts | 181° |
| 2026-04-23 06:14 | 8.41230 | 80.05098 | 22208 ft | 383 kts | 181° |
| 2026-04-23 06:14 | 8.38560 | 80.05047 | 21687 ft | 381 kts | 181° |
| 2026-04-23 06:14 | 8.35908 | 80.04995 | 21166 ft | 379 kts | 181° |
| 2026-04-23 06:15 | 8.33282 | 80.04945 | 20638 ft | 378 kts | 181° |
| 2026-04-23 06:15 | 8.30648 | 80.04894 | 20104 ft | 377 kts | 181° |
| 2026-04-23 06:15 | 8.28068 | 80.04844 | 19592 ft | 375 kts | 181° |
| 2026-04-23 06:15 | 8.25436 | 80.04793 | 19117 ft | 372 kts | 181° |
| 2026-04-23 06:16 | 8.22889 | 80.04743 | 18641 ft | 369 kts | 181° |
| 2026-04-23 06:16 | 8.20334 | 80.04694 | 18152 ft | 367 kts | 181° |
| 2026-04-23 06:16 | 8.17780 | 80.04645 | 17655 ft | 364 kts | 181° |
| 2026-04-23 06:16 | 8.15256 | 80.04596 | 17164 ft | 362 kts | 181° |
| 2026-04-23 06:17 | 8.12752 | 80.04548 | 16811 ft | 356 kts | 181° |
| 2026-04-23 06:17 | 8.10279 | 80.04500 | 16349 ft | 353 kts | 181° |
| 2026-04-23 06:17 | 8.07833 | 80.04454 | 15884 ft | 351 kts | 181° |
| 2026-04-23 06:17 | 8.05424 | 80.04407 | 15421 ft | 349 kts | 181° |
| 2026-04-23 06:18 | 8.02999 | 80.04361 | 14960 ft | 347 kts | 181° |
| 2026-04-23 06:18 | 8.00598 | 80.04315 | 14502 ft | 345 kts | 180° |
| 2026-04-23 06:18 | 7.98201 | 80.04269 | 14043 ft | 342 kts | 180° |
| 2026-04-23 06:18 | 7.95828 | 80.04223 | 13609 ft | 339 kts | 180° |
| 2026-04-23 06:19 | 7.93485 | 80.04178 | 13192 ft | 336 kts | 180° |
| 2026-04-23 06:19 | 7.91159 | 80.04134 | 12768 ft | 333 kts | 180° |
| 2026-04-23 06:19 | 7.88848 | 80.04089 | 12332 ft | 331 kts | 180° |
| 2026-04-23 06:19 | 7.86549 | 80.04045 | 11883 ft | 329 kts | 180° |
| 2026-04-23 06:20 | 7.84260 | 80.04001 | 11369 ft | 330 kts | 180° |
| 2026-04-23 06:20 | 7.81969 | 80.03957 | 10927 ft | 328 kts | 180° |
| 2026-04-23 06:20 | 7.79716 | 80.03914 | 10489 ft | 326 kts | 180° |
| 2026-04-23 06:20 | 7.77480 | 80.03871 | 10291 ft | 316 kts | 180° |
| 2026-04-23 06:21 | 7.75321 | 80.03830 | 10139 ft | 305 kts | 180° |
| 2026-04-23 06:21 | 7.73246 | 80.03790 | 9991 ft | 293 kts | 180° |
| 2026-04-23 06:21 | 7.71226 | 80.03751 | 9682 ft | 288 kts | 180° |
| 2026-04-23 06:21 | 7.69213 | 80.03713 | 9234 ft | 288 kts | 180° |
| 2026-04-23 06:22 | 7.67837 | 80.03687 | 8957 ft | 288 kts | 180° |
| 2026-04-23 06:31 | 7.67142 | 80.03673 | 8816 ft | 287 kts | 180° |
| 2026-04-23 06:32 | 7.65164 | 80.03635 | 8421 ft | 286 kts | 180° |
| 2026-04-23 06:32 | 7.63176 | 80.03597 | 8020 ft | 285 kts | 180° |
| 2026-04-23 06:32 | 7.61190 | 80.03559 | 7621 ft | 284 kts | 180° |
| 2026-04-23 06:32 | 7.59220 | 80.03521 | 7225 ft | 283 kts | 180° |
| 2026-04-23 06:33 | 7.57259 | 80.03484 | 6830 ft | 281 kts | 180° |
| 2026-04-23 06:33 | 7.55301 | 80.03446 | 6436 ft | 280 kts | 180° |
| 2026-04-23 06:33 | 7.53363 | 80.03409 | 6049 ft | 278 kts | 181° |
| 2026-04-23 06:33 | 7.51424 | 80.03372 | 5660 ft | 277 kts | 181° |
| 2026-04-23 06:34 | 7.49507 | 80.03335 | 5274 ft | 276 kts | 181° |
| 2026-04-23 06:34 | 7.47610 | 80.03299 | 4894 ft | 275 kts | 181° |
| 2026-04-23 06:34 | 7.45701 | 80.03262 | 4507 ft | 273 kts | 181° |
| 2026-04-23 06:34 | 7.43797 | 80.03226 | 4124 ft | 272 kts | 181° |
| 2026-04-23 06:35 | 7.41914 | 80.03189 | 3758 ft | 270 kts | 181° |
| 2026-04-23 06:35 | 7.40066 | 80.03154 | 3494 ft | 258 kts | 181° |
| 2026-04-23 06:35 | 7.38334 | 80.03082 | 3335 ft | 242 kts | 188° |
| 2026-04-23 06:35 | 7.36774 | 80.02550 | 3162 ft | 233 kts | 205° |
| 2026-04-23 06:36 | 7.35397 | 80.01752 | 2982 ft | 225 kts | 211° |
| 2026-04-23 06:36 | 7.34142 | 80.00868 | 2864 ft | 220 kts | 216° |
| 2026-04-23 06:36 | 7.33140 | 80.00085 | 2821 ft | 216 kts | 218° |
| 2026-04-23 06:36 | 7.31916 | 79.99110 | 2734 ft | 212 kts | 218° |
| 2026-04-23 06:37 | 7.30753 | 79.98196 | 2576 ft | 212 kts | 218° |
| 2026-04-23 06:37 | 7.29597 | 79.97295 | 2470 ft | 204 kts | 218° |
| 2026-04-23 06:37 | 7.28539 | 79.96472 | 2273 ft | 183 kts | 218° |
| 2026-04-23 06:37 | 7.27578 | 79.95725 | 2078 ft | 164 kts | 218° |
| 2026-04-23 06:38 | 7.26699 | 79.95042 | 1850 ft | 156 kts | 218° |
| 2026-04-23 06:38 | 7.25856 | 79.94387 | 1644 ft | 152 kts | 218° |
| 2026-04-23 06:38 | 7.25017 | 79.93736 | 1447 ft | 152 kts | 218° |
| 2026-04-23 06:38 | 7.24193 | 79.93096 | 1232 ft | 150 kts | 218° |
| 2026-04-23 06:39 | 7.23367 | 79.92454 | 1028 ft | 149 kts | 218° |
| 2026-04-23 06:39 | 7.22545 | 79.91816 | 834 ft | 149 kts | 218° |
| 2026-04-23 06:39 | 7.21720 | 79.91176 | 639 ft | 149 kts | 218° |
| 2026-04-23 06:39 | 7.20896 | 79.90536 | 441 ft | 150 kts | 218° |
| 2026-04-23 06:40 | 7.20076 | 79.89899 | 236 ft | 148 kts | 218° |
| 2026-04-23 06:40 | 7.19262 | 79.89284 | 51 ft | 143 kts | 218° |
| 2026-04-23 06:40 | 7.18587 | 79.88743 | 43 ft | 94 kts | 217° |
| 2026-04-23 06:40 | 7.18231 | 79.88471 | 43 ft | 43 kts | 218° |
| 2026-04-23 06:41 | 7.18040 | 79.88320 | 42 ft | 25 kts | 218° |
| 2026-04-23 06:41 | 7.17927 | 79.88232 | 42 ft | 13 kts | 217° |
| 2026-04-23 06:41 | 7.17874 | 79.88230 | 42 ft | 7 kts | 145° |
| 2026-04-23 06:41 | 7.17837 | 79.88271 | 42 ft | 10 kts | 126° |
| 2026-04-23 06:42 | 7.17833 | 79.88277 | 42 ft | 0 kts | 126° |
| 2026-04-23 06:43 | 7.17809 | 79.88308 | 42 ft | 8 kts | 135° |
| 2026-04-23 06:43 | 7.17755 | 79.88319 | 42 ft | 8 kts | 194° |
| 2026-04-23 06:43 | 7.17707 | 79.88292 | 42 ft | 8 kts | 216° |
| 2026-04-23 06:44 | 7.17663 | 79.88263 | 42 ft | 7 kts | 196° |
| 2026-04-23 06:44 | 7.17620 | 79.88282 | 42 ft | 7 kts | 129° |
| 2026-04-23 06:44 | 7.17590 | 79.88320 | 42 ft | 7 kts | 129° |
| 2026-04-23 06:44 | 7.17560 | 79.88357 | 42 ft | 7 kts | 129° |
| 2026-04-23 06:45 | 7.17531 | 79.88392 | 42 ft | 6 kts | 130° |
| 2026-04-23 06:45 | 7.17492 | 79.88401 | 42 ft | 6 kts | 208° |
| 2026-04-23 06:45 | 7.17459 | 79.88374 | 42 ft | 6 kts | 218° |
| 2026-04-23 06:45 | 7.17448 | 79.88366 | 42 ft | 0 kts | 218° |